臺北飛航情報區 - 海峽席

METAR RCTP 311030Z 23008KT 9999 FEW015 SCT019 28/26 Q1010 NOSIG RMK A2985=

站台狀態:Online
最後更新:2020-05-31 19:00:02